createdAt,value
2022-08-16T05:17:29.508Z,96722.91
2022-08-16T05:20:38.466Z,96732.03
2022-08-16T05:22:53.392Z,96740.13
2022-08-16T05:25:24.067Z,96744.06
2022-08-16T05:28:10.862Z,96746.97
2022-08-16T05:30:44.475Z,96746.59
2022-08-16T05:33:18.292Z,96746.59
2022-08-16T05:35:54.617Z,96740.81
2022-08-16T05:38:46.724Z,96732.22
2022-08-16T05:41:16.887Z,96744.72
2022-08-16T05:43:47.557Z,96742.34
2022-08-16T05:46:43.847Z,96742.91
2022-08-16T05:49:22.550Z,96729.75
2022-08-16T05:51:55.713Z,96721.84
2022-08-16T05:54:26.018Z,96728.19
2022-08-16T05:57:00.020Z,96728.91
2022-08-16T05:59:29.129Z,96732.38
2022-08-16T06:01:58.237Z,96733.63
2022-08-16T06:04:37.593Z,96724.97
2022-08-16T06:07:25.061Z,96722.75
2022-08-16T06:10:32.447Z,96716.06
2022-08-16T06:13:03.306Z,96719.09
2022-08-16T06:15:31.245Z,96713.44
2022-08-16T06:18:00.567Z,96708.41
2022-08-16T06:20:35.186Z,96710.34
2022-08-16T06:23:17.211Z,96702.88
2022-08-16T06:25:57.125Z,96701.84
2022-08-16T06:28:35.742Z,96701.50
2022-08-16T06:31:12.038Z,96704.66
2022-08-16T06:33:44.518Z,96706.03
2022-08-16T06:36:15.327Z,96712.19
2022-08-16T06:38:56.570Z,96704.06
2022-08-16T06:41:46.320Z,96711.53
2022-08-16T06:44:24.449Z,96716.03
2022-08-16T06:46:58.577Z,96705.88
2022-08-16T06:49:31.328Z,96706.53
2022-08-16T06:52:02.924Z,96704.06
2022-08-16T06:54:36.907Z,96707.88
2022-08-16T06:57:06.759Z,96684.91
2022-08-16T06:59:48.676Z,96687.56
2022-08-16T07:02:32.973Z,96682.81
2022-08-16T07:05:15.017Z,96677.59
2022-08-16T07:07:50.690Z,96666.91
2022-08-16T07:10:20.617Z,96658.53
2022-08-16T07:13:03.767Z,96667.13
2022-08-16T07:15:37.725Z,96678.63
2022-08-16T07:18:21.342Z,96676.38
2022-08-16T07:20:53.927Z,96687.19
2022-08-16T07:23:36.894Z,96681.09
2022-08-16T07:26:07.850Z,96670.00
2022-08-16T07:28:35.892Z,96675.59
2022-08-16T07:31:05.142Z,96678.09
2022-08-16T07:33:53.750Z,96674.09
2022-08-16T07:36:30.804Z,96677.44
2022-08-16T07:38:59.667Z,96675.75
2022-08-16T07:41:31.124Z,96675.06
2022-08-16T07:44:02.547Z,96660.97
2022-08-16T07:46:44.448Z,96684.81
2022-08-16T07:49:19.680Z,96675.09
2022-08-16T07:51:48.043Z,96676.50
2022-08-16T07:54:20.980Z,96674.38
2022-08-16T07:56:55.265Z,96685.00
2022-08-16T07:59:26.168Z,96680.56
2022-08-16T08:02:12.548Z,96687.84
2022-08-16T08:04:48.515Z,96677.88
2022-08-16T08:07:17.073Z,96686.41
2022-08-16T08:09:46.297Z,96692.06
2022-08-16T08:12:32.576Z,96686.38
2022-08-16T08:15:03.038Z,96696.88
2022-08-16T08:17:42.096Z,96726.84
2022-08-16T08:20:23.915Z,96718.84
2022-08-16T08:23:00.998Z,96727.06
2022-08-16T08:25:54.167Z,96733.75
2022-08-16T08:28:25.800Z,96750.28
2022-08-16T08:31:01.102Z,96756.00
2022-08-16T08:33:34.048Z,96770.13
2022-08-16T08:36:07.562Z,96761.88
2022-08-16T08:38:45.605Z,96759.34
2022-08-16T08:41:19.753Z,96750.63
2022-08-16T08:43:56.629Z,96749.81
2022-08-16T08:46:25.481Z,96750.50
2022-08-16T08:48:59.791Z,96758.56
2022-08-16T08:51:37.311Z,96753.56
2022-08-16T08:54:20.731Z,96756.84
2022-08-16T08:56:54.440Z,96765.84
2022-08-16T08:59:33.821Z,96762.22
2022-08-16T09:02:11.358Z,96768.47
2022-08-16T09:04:44.726Z,96774.91
2022-08-16T09:07:18.893Z,96773.88
2022-08-16T09:09:48.424Z,96772.09
2022-08-16T09:12:36.086Z,96778.66
2022-08-16T09:15:09.630Z,96786.00
2022-08-16T09:17:51.342Z,96785.09
2022-08-16T09:20:25.907Z,96785.09
2022-08-16T09:22:54.750Z,96781.75
2022-08-16T09:25:34.223Z,96779.47
2022-08-16T09:28:08.772Z,96762.69
2022-08-16T09:30:44.427Z,96777.09
2022-08-16T09:33:18.461Z,96782.03
2022-08-16T09:35:53.676Z,96783.97
2022-08-16T09:38:31.857Z,96794.63
2022-08-16T09:41:00.989Z,96787.03
2022-08-16T09:43:53.220Z,96798.38
2022-08-16T09:46:44.821Z,96788.78
2022-08-16T09:49:05.135Z,96803.41
2022-08-16T09:51:37.623Z,96799.38
2022-08-16T09:54:06.112Z,96803.81
2022-08-16T09:56:38.608Z,96798.75
2022-08-16T09:59:08.279Z,96796.59
2022-08-16T10:01:38.569Z,96792.31
2022-08-16T10:04:34.218Z,96795.94
2022-08-16T10:09:45.274Z,96795.03
2022-08-16T10:12:42.461Z,96792.59
2022-08-16T10:15:15.158Z,96793.97
2022-08-16T10:17:59.618Z,96794.28
2022-08-16T10:20:28.598Z,96795.06
2022-08-16T10:23:05.453Z,96797.63
2022-08-16T10:27:19.136Z,96793.50
2022-08-16T10:28:29.071Z,96793.00
2022-08-16T10:30:59.832Z,96797.75
2022-08-16T10:33:29.212Z,96787.09
2022-08-16T10:36:03.175Z,96798.09
2022-08-16T10:38:32.949Z,96789.56
2022-08-16T10:41:01.613Z,96784.84
2022-08-16T10:43:31.089Z,96799.78
2022-08-16T10:46:00.511Z,96787.28
2022-08-16T10:48:29.515Z,96779.16
2022-08-16T10:50:59.404Z,96795.34
2022-08-16T10:53:32.685Z,96801.50
2022-08-16T10:56:02.868Z,96792.56
2022-08-16T10:58:34.607Z,96794.13
2022-08-16T11:03:57.381Z,96803.69
2022-08-16T11:06:26.953Z,96811.47
2022-08-16T11:14:33.000Z,96796.81
2022-08-16T11:17:09.038Z,96801.75
2022-08-16T11:20:00.639Z,96787.13
2022-08-16T11:22:46.975Z,96800.50
2022-08-16T11:25:57.894Z,96805.53
2022-08-16T11:28:03.259Z,96803.47
2022-08-16T11:30:38.881Z,96806.44
2022-08-16T11:33:09.193Z,96808.47
2022-08-16T11:36:22.509Z,96796.97
2022-08-16T11:38:51.001Z,96791.38
2022-08-16T11:41:14.940Z,96800.75
2022-08-16T11:43:42.736Z,96807.38
2022-08-16T11:46:44.117Z,96801.25
2022-08-16T11:49:01.231Z,96812.53
2022-08-16T11:51:28.895Z,96821.72
2022-08-16T11:53:56.580Z,96801.44
2022-08-16T11:56:28.628Z,96813.81
2022-08-16T11:59:12.860Z,96807.78
2022-08-16T12:01:55.291Z,96800.34
2022-08-16T12:04:28.732Z,96789.00
2022-08-16T12:06:57.898Z,96787.91
2022-08-16T12:09:29.383Z,96790.16
2022-08-16T12:11:58.481Z,96797.31
2022-08-16T12:14:35.267Z,96800.13
2022-08-16T12:17:05.770Z,96797.81
2022-08-16T12:19:35.831Z,96801.59
2022-08-16T12:22:05.508Z,96796.78
2022-08-16T12:24:47.836Z,96806.56
2022-08-16T12:27:18.640Z,96799.16
2022-08-16T12:29:46.648Z,96812.41
2022-08-16T12:32:36.081Z,96808.47
2022-08-16T12:35:02.168Z,96803.88
2022-08-16T12:37:30.873Z,96788.00
2022-08-16T12:39:59.627Z,96797.94
2022-08-16T12:42:35.217Z,96816.84
2022-08-16T12:45:10.174Z,96825.03
2022-08-16T12:48:16.049Z,96822.72
2022-08-16T12:50:49.379Z,96813.00
2022-08-16T12:53:20.846Z,96817.59
2022-08-16T12:55:48.966Z,96826.34
2022-08-16T12:58:48.661Z,96823.50
2022-08-16T13:01:04.872Z,96822.94
2022-08-16T13:03:40.182Z,96825.84
2022-08-16T13:06:08.893Z,96817.59
2022-08-16T13:08:36.838Z,96817.91
2022-08-16T13:11:07.655Z,96818.91
2022-08-16T13:13:36.095Z,96816.94
2022-08-16T13:16:15.318Z,96816.16
2022-08-16T13:18:52.391Z,96813.06
2022-08-16T13:21:23.341Z,96806.81
2022-08-16T13:23:55.184Z,96809.22
2022-08-16T13:26:24.656Z,96798.47
2022-08-16T13:28:54.962Z,96803.53
2022-08-16T13:31:23.861Z,96797.00
2022-08-16T13:33:54.485Z,96800.25
2022-08-16T13:39:15.827Z,96800.75
2022-08-16T13:41:44.104Z,96805.03
2022-08-16T13:44:21.911Z,96806.38
2022-08-16T13:47:07.746Z,96798.94
2022-08-16T13:49:35.645Z,96793.03
2022-08-16T13:52:03.956Z,96799.03
2022-08-16T13:54:34.447Z,96797.94
2022-08-16T13:57:02.087Z,96797.91
2022-08-16T13:59:30.008Z,96798.53
2022-08-16T14:02:06.542Z,96794.44
2022-08-16T14:04:36.521Z,96793.34
2022-08-16T14:07:07.965Z,96799.69
2022-08-16T14:09:36.621Z,96792.91
2022-08-16T14:12:09.808Z,96792.03
2022-08-16T14:14:46.891Z,96785.28
2022-08-16T14:17:14.913Z,96781.91
2022-08-16T14:19:46.212Z,96789.53
2022-08-16T14:22:31.291Z,96783.81
2022-08-16T14:25:10.271Z,96780.47
2022-08-16T14:27:42.113Z,96782.25
2022-08-16T14:30:11.613Z,96775.47
2022-08-16T14:32:49.909Z,96776.47
2022-08-16T14:35:29.292Z,96769.53
2022-08-16T14:38:10.743Z,96774.19
2022-08-16T14:40:51.013Z,96774.13
2022-08-16T14:43:24.989Z,96776.19
2022-08-16T14:45:54.881Z,96776.03
2022-08-16T14:48:25.931Z,96782.16
2022-08-16T14:50:55.328Z,96777.94
2022-08-16T14:53:23.877Z,96777.97
2022-08-16T14:55:51.761Z,96782.00
2022-08-16T14:58:20.258Z,96785.16
2022-08-16T15:01:03.081Z,96778.53
2022-08-16T15:03:32.999Z,96784.69
2022-08-16T15:06:01.690Z,96779.69
2022-08-16T15:08:37.282Z,96779.91
2022-08-16T15:11:08.182Z,96778.53
2022-08-16T15:13:35.993Z,96780.66
2022-08-16T15:16:04.611Z,96787.41
2022-08-16T15:18:33.647Z,96778.59
2022-08-16T15:21:02.244Z,96786.75
2022-08-16T15:23:33.630Z,96772.00
2022-08-16T15:26:03.562Z,96776.38
2022-08-16T15:28:33.176Z,96777.78
2022-08-16T15:31:03.790Z,96784.91
2022-08-16T15:33:38.995Z,96781.97
2022-08-16T15:36:12.231Z,96792.50
2022-08-16T15:38:57.261Z,96785.41
2022-08-16T15:41:36.355Z,96788.94
2022-08-16T15:44:10.408Z,96791.25
2022-08-16T15:46:57.208Z,96782.59
2022-08-16T15:49:37.641Z,96778.31
2022-08-16T15:52:29.875Z,96767.16
2022-08-16T15:55:12.853Z,96763.66
2022-08-16T15:57:41.810Z,96755.38
2022-08-16T16:00:14.936Z,96766.59
2022-08-16T16:02:43.885Z,96757.50
2022-08-16T16:05:11.492Z,96762.09
2022-08-16T16:07:55.396Z,96760.09
2022-08-16T16:10:29.545Z,96775.06
2022-08-16T16:13:00.499Z,96790.38
2022-08-16T16:15:31.378Z,96818.66
2022-08-16T16:17:59.057Z,96828.06
2022-08-16T16:20:33.296Z,96825.34
2022-08-16T16:23:10.210Z,96844.22
2022-08-16T16:25:44.141Z,96845.47
2022-08-16T16:29:05.246Z,96838.50
2022-08-16T16:31:07.382Z,96835.50
2022-08-16T16:33:38.505Z,96860.16
2022-08-16T16:36:08.270Z,96853.16
2022-08-16T16:38:36.136Z,96871.53
2022-08-16T16:41:09.932Z,96864.91
2022-08-16T16:43:40.446Z,96859.94
2022-08-16T16:46:39.256Z,96859.28
2022-08-16T16:48:56.725Z,96882.78
2022-08-16T16:51:27.869Z,96893.47
2022-08-16T16:53:57.092Z,96894.00
2022-08-16T16:56:32.247Z,96878.25
2022-08-16T16:59:12.072Z,96887.84
2022-08-16T17:01:57.586Z,96895.34
2022-08-16T17:04:31.630Z,96888.91
2022-08-16T17:07:01.668Z,96880.59
2022-08-16T17:09:29.685Z,96875.00
2022-08-16T17:11:58.543Z,96855.50
2022-08-16T17:14:33.743Z,96853.31
2022-08-16T17:17:09.585Z,96856.06
2022-08-16T17:19:41.047Z,96860.13
2022-08-16T17:22:14.414Z,96859.03
2022-08-16T17:24:50.714Z,96844.25
2022-08-16T17:27:33.561Z,96833.81
2022-08-16T17:30:15.150Z,96845.81
2022-08-16T17:32:50.318Z,96837.56
2022-08-16T17:35:24.236Z,96845.38
2022-08-16T17:39:27.328Z,96836.28
2022-08-16T17:40:58.791Z,96840.84
2022-08-16T17:43:35.102Z,96849.69
2022-08-16T17:46:04.549Z,96850.47
2022-08-16T17:48:32.665Z,96858.47
2022-08-16T17:51:00.565Z,96857.94
2022-08-16T17:53:28.140Z,96858.50
2022-08-16T17:55:56.052Z,96860.09
2022-08-16T17:58:24.465Z,96859.56
2022-08-16T18:00:54.026Z,96860.59
2022-08-16T18:04:02.923Z,96853.44
2022-08-16T18:06:13.250Z,96858.47
2022-08-16T18:08:42.975Z,96852.84
2022-08-16T18:11:18.012Z,96856.34
2022-08-16T18:13:46.375Z,96841.66
2022-08-16T18:16:16.628Z,96841.97
2022-08-16T18:18:44.627Z,96844.09
2022-08-16T18:21:31.474Z,96846.22
2022-08-16T18:23:59.453Z,96848.63
2022-08-16T18:26:27.037Z,96853.16
2022-08-16T18:28:54.761Z,96857.16
2022-08-16T18:31:22.326Z,96865.19
2022-08-16T18:33:54.656Z,96859.00
2022-08-16T18:36:24.990Z,96855.31
2022-08-16T18:38:52.709Z,96852.09
2022-08-16T18:41:21.774Z,96857.44
2022-08-16T18:44:22.400Z,96864.91
2022-08-16T18:46:42.357Z,96858.22
2022-08-16T18:49:10.196Z,96864.34
2022-08-16T18:51:42.725Z,96860.09
2022-08-16T18:54:11.168Z,96869.47
2022-08-16T18:56:53.780Z,96866.53
2022-08-16T18:59:27.002Z,96878.25
2022-08-16T19:01:55.528Z,96887.59
